Time;durP1;ratioP1;P1;durP2;ratioP2;P2;SDS_P1;SDS_P2;PMS_P1;PMS_P2;Temp;Humidity;BMP_temperature;BMP_pressure;BME280_temperature;BME280_humidity;BME280_pressure;Samples;Min_cycle;Max_cycle;Signal;HPM_P1;HPM_P2
2022/05/09 00:02:13;;;;;;;5.23;4.73;;;;;;;;;;5045400;28;20222;-37
2022/05/09 00:04:41;;;;;;;4.40;4.00;;;;;;;;;;5050306;28;20202;-38
2022/05/09 00:07:08;;;;;;;4.63;4.27;;;;;;;;;;5050254;28;20226;-35
2022/05/09 00:09:36;;;;;;;5.20;4.70;;;;;;;;;;5034886;28;20585;-36
2022/05/09 00:12:03;;;;;;;5.10;4.60;;;;;;;;;;5037922;28;20284;-34
2022/05/09 00:14:30;;;;;;;7.33;4.83;;;;;;;;;;5051361;28;20214;-40
2022/05/09 00:16:57;;;;;;;5.90;4.93;;;;;;;;;;5039484;28;20322;-37
2022/05/09 00:19:24;;;;;;;5.40;4.50;;;;;;;;;;5044236;28;20206;-41
2022/05/09 00:21:54;;;;;;;5.10;4.53;;;;;;;;;;5040954;28;20672;-33
2022/05/09 00:24:22;;;;;;;4.77;4.27;;;;;;;;;;5041617;28;20206;-35
2022/05/09 00:26:50;;;;;;;6.00;4.70;;;;;;;;;;5042049;28;20261;-39
2022/05/09 00:29:18;;;;;;;5.00;4.47;;;;;;;;;;5041811;28;20214;-37
2022/05/09 00:31:47;;;;;;;7.37;4.63;;;;;;;;;;5049642;28;20212;-33
2022/05/09 00:34:17;;;;;;;5.00;4.50;;;;;;;;;;5050200;28;20202;-36
2022/05/09 00:36:44;;;;;;;5.27;4.53;;;;;;;;;;5044874;28;20236;-39
2022/05/09 00:39:12;;;;;;;4.60;4.20;;;;;;;;;;5044423;28;20264;-32
2022/05/09 00:41:41;;;;;;;4.60;4.20;;;;;;;;;;5033042;28;20205;-33
2022/05/09 00:44:10;;;;;;;6.10;4.50;;;;;;;;;;5043603;28;20233;-36
2022/05/09 00:46:38;;;;;;;4.60;4.10;;;;;;;;;;5047110;28;20233;-38
2022/05/09 00:49:09;;;;;;;5.10;4.60;;;;;;;;;;5047534;28;20453;-37
2022/05/09 00:51:37;;;;;;;4.63;4.23;;;;;;;;;;5033036;28;20210;-38
2022/05/09 00:54:04;;;;;;;5.77;4.70;;;;;;;;;;5050156;28;20213;-35
2022/05/09 00:56:36;;;;;;;4.93;4.37;;;;;;;;;;5044892;28;20743;-36
2022/05/09 00:59:06;;;;;;;5.37;4.43;;;;;;;;;;5042469;28;20215;-36
2022/05/09 01:01:33;;;;;;;4.73;4.30;;;;;;;;;;5040223;28;20210;-33
2022/05/09 01:04:04;;;;;;;5.10;4.60;;;;;;;;;;5047986;28;20248;-34
2022/05/09 01:06:32;;;;;;;5.13;4.63;;;;;;;;;;5033690;28;20579;-35
2022/05/09 01:08:59;;;;;;;4.87;4.47;;;;;;;;;;5029653;28;20210;-36
2022/05/09 01:11:26;;;;;;;4.60;4.13;;;;;;;;;;5041283;28;20209;-39
2022/05/09 01:13:57;;;;;;;5.27;4.77;;;;;;;;;;5045767;28;20198;-38
2022/05/09 01:16:26;;;;;;;5.10;4.60;;;;;;;;;;5043362;28;20715;-37
2022/05/09 01:18:53;;;;;;;4.53;4.13;;;;;;;;;;5050029;28;20210;-39
2022/05/09 01:21:31;;;;;;;5.27;4.77;;;;;;;;;;5047693;28;20213;-37
2022/05/09 01:23:59;;;;;;;4.30;4.00;;;;;;;;;;5048995;28;20222;-34
2022/05/09 01:26:26;;;;;;;4.70;4.30;;;;;;;;;;5039452;28;20256;-35
2022/05/09 01:28:55;;;;;;;4.70;4.13;;;;;;;;;;5044745;28;20217;-38
2022/05/09 01:31:22;;;;;;;4.57;4.17;;;;;;;;;;5037837;28;20213;-35
2022/05/09 01:33:51;;;;;;;5.53;4.87;;;;;;;;;;5033467;28;20208;-36
2022/05/09 01:36:20;;;;;;;5.07;4.57;;;;;;;;;;5045962;28;20233;-36
2022/05/09 01:38:52;;;;;;;5.47;4.90;;;;;;;;;;5048220;28;20198;-35
2022/05/09 01:41:19;;;;;;;5.93;5.10;;;;;;;;;;5034658;28;20198;-32
2022/05/09 01:43:48;;;;;;;5.87;4.53;;;;;;;;;;5050753;28;20506;-37
2022/05/09 01:46:16;;;;;;;5.17;4.63;;;;;;;;;;5046786;28;20249;-37
2022/05/09 01:51:29;;;;;;;5.10;3.93;;;;;;;;;;5047428;28;20261;-40
2022/05/09 01:53:58;;;;;;;5.37;4.87;;;;;;;;;;5036095;28;20202;-36
2022/05/09 01:56:26;;;;;;;4.50;4.10;;;;;;;;;;5049843;28;20591;-38
2022/05/09 01:58:54;;;;;;;5.90;4.10;;;;;;;;;;5049267;28;20207;-32
2022/05/09 02:01:22;;;;;;;4.87;4.40;;;;;;;;;;5041148;28;20203;-37
2022/05/09 02:03:50;;;;;;;4.60;4.20;;;;;;;;;;5032660;28;20223;-32
2022/05/09 02:06:17;;;;;;;4.20;3.80;;;;;;;;;;5043667;28;20229;-36
2022/05/09 02:08:44;;;;;;;6.73;3.60;;;;;;;;;;5050065;28;20211;-35
2022/05/09 02:11:13;;;;;;;5.07;3.77;;;;;;;;;;5041302;28;20529;-33
2022/05/09 02:13:43;;;;;;;4.33;3.93;;;;;;;;;;5048693;28;20199;-38
2022/05/09 02:16:11;;;;;;;4.47;4.07;;;;;;;;;;5044143;28;20237;-42
2022/05/09 02:18:38;;;;;;;5.10;4.60;;;;;;;;;;5052246;28;20672;-39
2022/05/09 02:21:06;;;;;;;4.70;4.30;;;;;;;;;;5047702;28;20433;-30
2022/05/09 02:23:34;;;;;;;4.57;4.03;;;;;;;;;;5035748;28;20237;-38
2022/05/09 02:26:01;;;;;;;6.73;4.90;;;;;;;;;;5041844;28;20293;-35
2022/05/09 02:28:29;;;;;;;5.20;4.37;;;;;;;;;;5041648;28;20208;-37
2022/05/09 02:30:56;;;;;;;4.93;4.50;;;;;;;;;;5041991;28;20564;-37
2022/05/09 02:33:24;;;;;;;5.03;4.53;;;;;;;;;;5035198;28;20685;-39
2022/05/09 02:35:51;;;;;;;5.30;4.80;;;;;;;;;;5037024;28;20232;-35
2022/05/09 02:38:18;;;;;;;5.20;4.70;;;;;;;;;;5045312;28;20668;-34
2022/05/09 02:40:45;;;;;;;5.20;4.80;;;;;;;;;;5042612;28;20202;-39
2022/05/09 02:43:12;;;;;;;5.27;4.80;;;;;;;;;;5048130;28;20229;-39
2022/05/09 02:45:41;;;;;;;5.97;5.10;;;;;;;;;;5034225;28;20559;-37
2022/05/09 02:48:08;;;;;;;5.63;4.80;;;;;;;;;;5032051;28;20213;-37
2022/05/09 02:50:36;;;;;;;5.73;5.17;;;;;;;;;;5033157;28;20571;-41
2022/05/09 02:53:03;;;;;;;5.57;5.07;;;;;;;;;;5051350;28;20200;-39
2022/05/09 02:55:31;;;;;;;6.20;4.83;;;;;;;;;;5043553;28;20309;-35
2022/05/09 02:57:58;;;;;;;5.93;5.33;;;;;;;;;;5045910;28;20206;-34
2022/05/09 03:00:27;;;;;;;6.00;5.40;;;;;;;;;;5035985;28;20210;-37
2022/05/09 03:05:41;;;;;;;4.53;4.13;;;;;;;;;;5050946;28;20304;-35
2022/05/09 03:08:09;;;;;;;5.00;4.50;;;;;;;;;;5050674;28;20217;-31
2022/05/09 03:10:36;;;;;;;5.30;4.83;;;;;;;;;;5043229;28;20259;-34
2022/05/09 03:13:04;;;;;;;5.07;4.57;;;;;;;;;;5043953;28;20211;-34
2022/05/09 03:15:33;;;;;;;5.00;4.60;;;;;;;;;;5037002;28;20223;-34
2022/05/09 03:18:02;;;;;;;4.97;4.57;;;;;;;;;;5034213;28;20206;-36
2022/05/09 03:20:29;;;;;;;5.30;4.73;;;;;;;;;;5033482;28;20230;-38
2022/05/09 03:22:56;;;;;;;4.70;4.30;;;;;;;;;;5052453;28;20290;-37
2022/05/09 03:25:23;;;;;;;4.70;4.30;;;;;;;;;;5043062;28;20222;-36
2022/05/09 03:27:51;;;;;;;6.23;4.83;;;;;;;;;;5041639;28;20221;-38
2022/05/09 03:30:18;;;;;;;4.97;4.50;;;;;;;;;;5036177;28;20215;-34
2022/05/09 03:32:47;;;;;;;5.37;4.93;;;;;;;;;;5031204;28;20214;-35
2022/05/09 03:35:15;;;;;;;4.77;4.37;;;;;;;;;;5035214;28;20203;-34
2022/05/09 03:37:43;;;;;;;5.60;5.10;;;;;;;;;;5045689;28;20211;-38
2022/05/09 03:40:10;;;;;;;4.83;4.43;;;;;;;;;;5037283;28;20218;-37
2022/05/09 03:42:39;;;;;;;5.27;4.77;;;;;;;;;;5039260;28;20208;-34
2022/05/09 03:45:07;;;;;;;5.53;5.03;;;;;;;;;;5048258;28;20265;-39
2022/05/09 03:47:35;;;;;;;6.03;4.80;;;;;;;;;;5034068;28;20213;-37
2022/05/09 03:50:02;;;;;;;6.70;5.13;;;;;;;;;;5040164;28;20199;-33
2022/05/09 03:52:30;;;;;;;4.97;4.27;;;;;;;;;;5042594;28;20203;-34
2022/05/09 03:54:58;;;;;;;5.60;5.10;;;;;;;;;;5030153;28;20194;-31
2022/05/09 03:57:25;;;;;;;5.27;4.77;;;;;;;;;;5042295;28;20406;-39
2022/05/09 03:59:52;;;;;;;4.70;4.30;;;;;;;;;;5043982;28;20214;-37
2022/05/09 04:02:20;;;;;;;5.73;4.50;;;;;;;;;;5046993;28;20214;-33
2022/05/09 04:04:47;;;;;;;4.77;4.20;;;;;;;;;;5052400;28;20324;-38
2022/05/09 04:07:14;;;;;;;7.63;5.77;;;;;;;;;;5055031;28;20232;-37
2022/05/09 04:09:43;;;;;;;6.03;5.43;;;;;;;;;;5051278;28;20285;-36
2022/05/09 04:12:11;;;;;;;6.00;5.40;;;;;;;;;;5041793;28;20206;-35
2022/05/09 04:17:19;;;;;;;4.77;4.33;;;;;;;;;;4983233;28;20337;-38
2022/05/09 04:19:46;;;;;;;6.07;5.20;;;;;;;;;;5053753;28;20300;-37
2022/05/09 04:22:13;;;;;;;5.27;4.77;;;;;;;;;;5046268;28;20210;-34
2022/05/09 04:24:40;;;;;;;5.30;4.90;;;;;;;;;;5040037;28;20218;-31
2022/05/09 04:27:08;;;;;;;5.20;4.73;;;;;;;;;;5032803;28;20234;-37
2022/05/09 04:29:36;;;;;;;5.57;4.53;;;;;;;;;;5034105;28;20207;-29
2022/05/09 04:32:03;;;;;;;5.33;4.83;;;;;;;;;;5046172;28;20217;-35
2022/05/09 04:34:30;;;;;;;5.10;4.70;;;;;;;;;;5042773;28;20206;-38
2022/05/09 04:36:58;;;;;;;4.70;4.30;;;;;;;;;;5051134;28;20228;-39
2022/05/09 04:39:25;;;;;;;6.90;5.13;;;;;;;;;;5053193;28;20203;-39
2022/05/09 04:41:52;;;;;;;5.13;4.73;;;;;;;;;;5039638;28;20210;-38
2022/05/09 04:44:22;;;;;;;5.53;5.03;;;;;;;;;;5046107;28;20228;-34
2022/05/09 04:46:51;;;;;;;6.40;5.80;;;;;;;;;;5042974;28;20222;-35
2022/05/09 04:49:18;;;;;;;5.87;5.27;;;;;;;;;;5046695;28;20213;-34
2022/05/09 04:51:45;;;;;;;5.87;5.20;;;;;;;;;;5050722;28;20213;-32
2022/05/09 04:54:14;;;;;;;5.13;4.70;;;;;;;;;;5052084;28;20201;-37
2022/05/09 04:56:41;;;;;;;5.37;4.87;;;;;;;;;;5044108;28;20556;-40
2022/05/09 04:59:09;;;;;;;5.13;4.63;;;;;;;;;;5042198;28;20206;-35
2022/05/09 05:01:37;;;;;;;5.10;4.57;;;;;;;;;;5048578;28;20212;-33
2022/05/09 05:04:06;;;;;;;5.90;5.30;;;;;;;;;;5052560;28;20222;-37
2022/05/09 05:06:33;;;;;;;6.67;4.90;;;;;;;;;;5050696;28;20316;-36
2022/05/09 05:09:00;;;;;;;5.80;5.30;;;;;;;;;;5047501;28;20204;-39
2022/05/09 05:11:27;;;;;;;6.07;5.07;;;;;;;;;;5048644;28;20207;-34
2022/05/09 05:13:54;;;;;;;6.00;5.50;;;;;;;;;;5051612;28;20277;-36
2022/05/09 05:16:59;;;;;;;5.87;5.33;;;;;;;;;;5047154;28;20229;-35
2022/05/09 05:19:10;;;;;;;6.07;5.30;;;;;;;;;;5054420;28;20230;-35
2022/05/09 05:21:37;;;;;;;6.70;5.17;;;;;;;;;;5051877;28;20217;-38
2022/05/09 05:24:04;;;;;;;6.23;5.63;;;;;;;;;;5046387;28;20226;-35
2022/05/09 05:26:31;;;;;;;6.27;5.23;;;;;;;;;;5052940;28;20229;-36
2022/05/09 05:28:58;;;;;;;5.87;5.33;;;;;;;;;;5051424;28;20226;-31
2022/05/09 05:31:25;;;;;;;6.53;5.93;;;;;;;;;;5051291;28;20228;-31
2022/05/09 05:33:53;;;;;;;6.73;6.00;;;;;;;;;;5057247;28;20604;-35
2022/05/09 05:36:22;;;;;;;6.73;6.13;;;;;;;;;;5048506;28;20227;-33
2022/05/09 05:38:51;;;;;;;6.63;6.00;;;;;;;;;;5055328;28;20206;-35
2022/05/09 05:41:18;;;;;;;7.83;6.00;;;;;;;;;;5052920;28;20250;-40
2022/05/09 05:43:46;;;;;;;6.67;6.07;;;;;;;;;;5050663;28;20271;-38
2022/05/09 05:46:13;;;;;;;6.63;6.03;;;;;;;;;;5054967;28;20232;-34
2022/05/09 05:48:41;;;;;;;6.43;5.33;;;;;;;;;;5055100;28;20259;-30
2022/05/09 05:51:08;;;;;;;7.60;6.37;;;;;;;;;;5049332;28;20206;-37
2022/05/09 05:53:37;;;;;;;7.13;5.87;;;;;;;;;;5045298;28;20210;-36
2022/05/09 05:56:05;;;;;;;6.07;5.47;;;;;;;;;;5033988;28;20222;-32
2022/05/09 05:58:33;;;;;;;6.20;5.60;;;;;;;;;;5052045;28;20210;-39
2022/05/09 06:01:00;;;;;;;6.80;6.10;;;;;;;;;;5042941;28;20221;-33
2022/05/09 06:03:27;;;;;;;8.43;6.93;;;;;;;;;;5052483;28;20209;-39
2022/05/09 06:05:54;;;;;;;7.53;5.67;;;;;;;;;;5049683;28;20647;-39
2022/05/09 06:08:21;;;;;;;7.47;6.50;;;;;;;;;;5053893;28;20217;-36
2022/05/09 06:10:50;;;;;;;7.87;6.63;;;;;;;;;;5034261;28;20206;-35
2022/05/09 06:13:17;;;;;;;7.87;6.47;;;;;;;;;;5051775;28;20214;-36
2022/05/09 06:15:44;;;;;;;9.17;6.40;;;;;;;;;;5042235;28;20223;-33
2022/05/09 06:18:12;;;;;;;7.93;6.53;;;;;;;;;;5047759;28;20209;-37
2022/05/09 06:20:40;;;;;;;8.60;7.13;;;;;;;;;;5051789;28;20202;-33
2022/05/09 06:23:09;;;;;;;6.90;6.23;;;;;;;;;;5041056;28;20210;-39
2022/05/09 06:25:37;;;;;;;9.20;7.07;;;;;;;;;;5037969;28;20257;-35
2022/05/09 06:28:06;;;;;;;7.03;6.27;;;;;;;;;;5047547;28;20314;-33
2022/05/09 06:30:33;;;;;;;7.10;6.07;;;;;;;;;;5049147;28;20208;-38
2022/05/09 06:33:00;;;;;;;7.37;6.73;;;;;;;;;;5034253;28;20203;-31
2022/05/09 06:35:28;;;;;;;7.37;6.20;;;;;;;;;;5048288;28;20237;-33
2022/05/09 06:38:00;;;;;;;7.00;6.30;;;;;;;;;;5042143;28;20266;-33
2022/05/09 06:40:28;;;;;;;6.70;6.10;;;;;;;;;;5034051;28;20716;-35
2022/05/09 06:42:56;;;;;;;7.00;6.30;;;;;;;;;;5048563;28;20237;-35
2022/05/09 06:45:25;;;;;;;7.07;6.47;;;;;;;;;;5040734;28;20231;-36
2022/05/09 06:47:53;;;;;;;7.57;6.03;;;;;;;;;;5053922;28;20201;-40
2022/05/09 06:50:22;;;;;;;6.27;5.50;;;;;;;;;;5054100;28;20202;-37
2022/05/09 06:52:49;;;;;;;7.10;6.37;;;;;;;;;;5046613;28;20214;-34
2022/05/09 06:55:16;;;;;;;7.87;6.50;;;;;;;;;;5053462;28;20267;-34
2022/05/09 06:57:45;;;;;;;8.50;5.87;;;;;;;;;;5045223;28;20203;-35
2022/05/09 07:00:15;;;;;;;7.47;5.87;;;;;;;;;;5053086;28;20207;-35
2022/05/09 07:02:43;;;;;;;6.73;5.97;;;;;;;;;;5053744;28;20202;-38
2022/05/09 07:05:12;;;;;;;6.60;5.00;;;;;;;;;;5053653;28;20223;-37
2022/05/09 07:07:40;;;;;;;5.97;5.27;;;;;;;;;;5047883;28;20214;-35
2022/05/09 07:10:08;;;;;;;5.73;5.17;;;;;;;;;;5048243;28;20213;-34
2022/05/09 07:12:42;;;;;;;5.23;4.83;;;;;;;;;;5047455;28;20208;-35
2022/05/09 07:15:09;;;;;;;6.30;5.07;;;;;;;;;;5046258;28;20209;-34
2022/05/09 07:17:36;;;;;;;5.43;4.83;;;;;;;;;;5050486;28;20212;-36
2022/05/09 07:20:05;;;;;;;6.70;4.80;;;;;;;;;;5038903;28;20212;-36
2022/05/09 07:22:32;;;;;;;5.53;4.67;;;;;;;;;;5048659;28;20206;-34
2022/05/09 07:25:02;;;;;;;5.23;4.70;;;;;;;;;;5032921;28;20229;-35
2022/05/09 07:27:29;;;;;;;5.27;4.77;;;;;;;;;;5045725;28;20224;-33
2022/05/09 07:29:56;;;;;;;5.60;5.10;;;;;;;;;;5046000;28;20213;-34
2022/05/09 07:32:23;;;;;;;6.67;5.33;;;;;;;;;;5048150;28;20205;-32
2022/05/09 07:34:51;;;;;;;8.20;4.90;;;;;;;;;;5053496;28;20280;-34
2022/05/09 07:37:21;;;;;;;6.60;4.97;;;;;;;;;;5043043;28;20298;-35
2022/05/09 07:39:48;;;;;;;5.83;5.23;;;;;;;;;;5044455;28;20209;-32
2022/05/09 07:42:15;;;;;;;5.10;4.70;;;;;;;;;;5052466;28;20210;-34
2022/05/09 07:44:42;;;;;;;6.10;5.30;;;;;;;;;;5047453;28;20225;-37
2022/05/09 07:47:10;;;;;;;6.90;5.30;;;;;;;;;;5033151;28;20226;-32
2022/05/09 07:49:37;;;;;;;7.50;5.30;;;;;;;;;;5031625;28;20763;-37
2022/05/09 07:52:05;;;;;;;6.97;5.00;;;;;;;;;;5040664;28;20206;-35
2022/05/09 07:54:34;;;;;;;5.50;5.00;;;;;;;;;;5050778;28;20507;-32
2022/05/09 07:57:01;;;;;;;5.73;4.83;;;;;;;;;;5041330;28;20218;-39
2022/05/09 07:59:29;;;;;;;5.43;4.90;;;;;;;;;;5044907;28;20293;-34
2022/05/09 08:01:56;;;;;;;5.93;5.27;;;;;;;;;;5032828;28;20198;-35
2022/05/09 08:04:23;;;;;;;8.47;5.03;;;;;;;;;;5032864;28;20732;-35
2022/05/09 08:06:50;;;;;;;5.13;4.63;;;;;;;;;;5037665;28;20228;-31
2022/05/09 08:09:17;;;;;;;5.60;5.10;;;;;;;;;;5051947;28;20590;-34
2022/05/09 08:11:46;;;;;;;5.27;4.70;;;;;;;;;;5047425;28;20212;-35
2022/05/09 08:14:13;;;;;;;4.77;4.37;;;;;;;;;;5050011;28;20204;-34
2022/05/09 08:16:40;;;;;;;8.10;5.20;;;;;;;;;;5050734;28;20222;-39
2022/05/09 08:19:07;;;;;;;5.00;4.47;;;;;;;;;;5040145;28;20206;-30
2022/05/09 08:21:36;;;;;;;8.00;4.80;;;;;;;;;;5034595;28;20915;-36
2022/05/09 08:24:03;;;;;;;6.93;5.23;;;;;;;;;;5045440;28;20205;-38
2022/05/09 08:26:31;;;;;;;5.33;4.83;;;;;;;;;;5037204;28;20225;-37
2022/05/09 08:28:59;;;;;;;6.30;5.00;;;;;;;;;;5047657;28;20210;-35
2022/05/09 08:31:26;;;;;;;5.17;4.67;;;;;;;;;;5039109;28;20206;-36
2022/05/09 08:33:56;;;;;;;5.93;4.80;;;;;;;;;;5052360;28;20233;-34
2022/05/09 08:39:09;;;;;;;4.80;4.40;;;;;;;;;;5047279;28;20223;-30
2022/05/09 08:41:38;;;;;;;8.87;4.83;;;;;;;;;;5050423;28;20269;-35
2022/05/09 08:44:13;;;;;;;5.00;4.50;;;;;;;;;;5052218;28;20206;-36
2022/05/09 08:46:45;;;;;;;5.00;4.50;;;;;;;;;;5049614;28;20224;-32
2022/05/09 08:49:22;;;;;;;5.17;4.73;;;;;;;;;;5041576;28;20186;-36
2022/05/09 08:51:56;;;;;;;4.83;4.07;;;;;;;;;;5051193;28;20205;-36
2022/05/09 08:54:24;;;;;;;4.37;4.03;;;;;;;;;;5040975;28;20210;-37
2022/05/09 08:56:53;;;;;;;5.70;5.00;;;;;;;;;;5053348;28;20213;-34
2022/05/09 08:59:25;;;;;;;5.33;4.80;;;;;;;;;;5054712;28;20201;-30
2022/05/09 09:01:55;;;;;;;5.57;3.93;;;;;;;;;;5053234;28;20209;-32
2022/05/09 09:04:24;;;;;;;4.63;4.20;;;;;;;;;;5047388;28;20207;-36
2022/05/09 09:06:59;;;;;;;5.17;4.70;;;;;;;;;;5056094;28;20232;-37
2022/05/09 09:09:32;;;;;;;6.60;4.37;;;;;;;;;;5053046;28;20205;-32
2022/05/09 09:12:03;;;;;;;6.07;4.50;;;;;;;;;;5046096;28;20205;-31
2022/05/09 09:14:39;;;;;;;4.77;4.17;;;;;;;;;;5046708;28;20202;-34
2022/05/09 09:17:12;;;;;;;4.93;4.43;;;;;;;;;;5036384;28;20222;-38
2022/05/09 09:19:48;;;;;;;4.53;4.03;;;;;;;;;;5036411;28;20239;-36
2022/05/09 09:22:22;;;;;;;4.00;3.50;;;;;;;;;;5048697;28;20205;-35
2022/05/09 09:25:07;;;;;;;4.90;4.40;;;;;;;;;;5045711;28;20205;-36
2022/05/09 09:27:47;;;;;;;6.67;4.60;;;;;;;;;;5047684;28;20213;-38
2022/05/09 09:30:18;;;;;;;4.50;4.03;;;;;;;;;;5054073;28;20205;-37
2022/05/09 09:32:46;;;;;;;5.53;4.10;;;;;;;;;;5037088;28;20199;-35
2022/05/09 09:35:15;;;;;;;4.70;4.30;;;;;;;;;;5047007;28;20210;-39
2022/05/09 09:37:47;;;;;;;4.77;4.37;;;;;;;;;;5053263;28;20212;-36
2022/05/09 09:40:14;;;;;;;4.77;4.37;;;;;;;;;;5046826;28;20194;-30
2022/05/09 09:42:41;;;;;;;5.37;4.87;;;;;;;;;;5048266;28;20219;-33
2022/05/09 09:45:27;;;;;;;4.90;4.40;;;;;;;;;;5038998;28;20284;-39
2022/05/09 09:48:06;;;;;;;5.37;4.43;;;;;;;;;;5034953;28;20208;-36
2022/05/09 09:50:33;;;;;;;4.47;4.00;;;;;;;;;;5039376;28;20198;-32
2022/05/09 09:53:02;;;;;;;4.70;4.30;;;;;;;;;;5047185;28;20205;-35
2022/05/09 09:55:30;;;;;;;5.87;4.10;;;;;;;;;;5041692;28;20224;-32
2022/05/09 09:57:57;;;;;;;5.10;4.10;;;;;;;;;;5043740;28;20205;-36
2022/05/09 10:00:27;;;;;;;4.37;4.00;;;;;;;;;;5041545;28;20211;-33
2022/05/09 10:02:56;;;;;;;7.27;4.43;;;;;;;;;;5044688;28;20205;-34
2022/05/09 10:05:33;;;;;;;5.27;4.27;;;;;;;;;;5053054;28;20267;-37
2022/05/09 10:08:18;;;;;;;4.80;4.30;;;;;;;;;;5041759;28;20231;-38
2022/05/09 10:10:54;;;;;;;4.97;4.47;;;;;;;;;;5036978;28;20216;-38
2022/05/09 10:13:22;;;;;;;5.13;4.30;;;;;;;;;;5054508;28;20201;-36
2022/05/09 10:16:02;;;;;;;5.20;4.50;;;;;;;;;;5043173;28;20293;-36
2022/05/09 10:18:33;;;;;;;4.93;4.43;;;;;;;;;;5051614;28;20201;-40
2022/05/09 10:21:01;;;;;;;6.40;4.57;;;;;;;;;;5051272;28;20209;-33
2022/05/09 10:26:21;;;;;;;4.70;4.30;;;;;;;;;;5037774;28;20289;-37
2022/05/09 10:28:50;;;;;;;4.77;4.37;;;;;;;;;;5044365;28;20209;-33
2022/05/09 10:31:21;;;;;;;4.67;4.27;;;;;;;;;;5043118;28;20216;-36
2022/05/09 10:33:54;;;;;;;5.10;4.60;;;;;;;;;;5054330;28;20200;-34
2022/05/09 10:36:23;;;;;;;4.53;3.43;;;;;;;;;;5050736;28;20281;-35
2022/05/09 10:38:52;;;;;;;4.47;4.07;;;;;;;;;;5045496;28;20291;-38
2022/05/09 10:41:29;;;;;;;4.77;4.30;;;;;;;;;;5039307;28;20318;-35
2022/05/09 10:43:59;;;;;;;7.23;4.20;;;;;;;;;;5044276;28;20223;-36
2022/05/09 10:46:34;;;;;;;3.90;3.60;;;;;;;;;;5041141;28;20234;-33
2022/05/09 10:49:06;;;;;;;4.53;4.13;;;;;;;;;;5052131;28;20193;-36
2022/05/09 10:51:36;;;;;;;5.13;4.10;;;;;;;;;;5053062;28;20211;-38
2022/05/09 10:54:08;;;;;;;4.80;4.30;;;;;;;;;;5046237;28;20227;-38
2022/05/09 10:56:38;;;;;;;4.00;3.60;;;;;;;;;;5049961;28;20460;-36
2022/05/09 10:59:07;;;;;;;4.30;4.00;;;;;;;;;;5051901;28;20306;-36
2022/05/09 11:01:37;;;;;;;4.20;3.90;;;;;;;;;;5044129;28;20458;-32
2022/05/09 11:04:05;;;;;;;5.60;4.10;;;;;;;;;;5033214;28;20220;-33
2022/05/09 11:06:38;;;;;;;4.93;4.37;;;;;;;;;;5035749;28;20243;-38
2022/05/09 11:09:11;;;;;;;5.33;4.50;;;;;;;;;;5052084;28;20257;-34
2022/05/09 11:11:42;;;;;;;4.40;4.00;;;;;;;;;;5053668;28;20237;-35
2022/05/09 11:14:17;;;;;;;4.03;3.63;;;;;;;;;;5047991;28;20207;-36
2022/05/09 11:16:51;;;;;;;5.80;4.23;;;;;;;;;;5041102;28;20226;-34
2022/05/09 11:19:29;;;;;;;4.00;3.60;;;;;;;;;;5033261;28;20214;-36
2022/05/09 11:22:00;;;;;;;4.70;4.03;;;;;;;;;;5040477;28;20221;-32
2022/05/09 11:24:38;;;;;;;3.87;3.57;;;;;;;;;;5048987;28;20202;-34
2022/05/09 11:27:11;;;;;;;4.30;3.90;;;;;;;;;;5052679;28;20257;-35
2022/05/09 11:29:42;;;;;;;4.93;3.97;;;;;;;;;;5045483;28;20205;-35
2022/05/09 11:32:21;;;;;;;4.77;3.77;;;;;;;;;;5042377;28;20198;-39
2022/05/09 11:34:54;;;;;;;4.73;3.93;;;;;;;;;;5040391;28;20205;-31
2022/05/09 11:37:26;;;;;;;4.07;3.67;;;;;;;;;;5052353;28;20570;-32
2022/05/09 11:40:01;;;;;;;4.30;3.90;;;;;;;;;;5033343;28;20222;-34
2022/05/09 11:45:22;;;;;;;5.30;3.80;;;;;;;;;;5043795;28;20209;-37
2022/05/09 11:47:57;;;;;;;4.13;3.67;;;;;;;;;;5052620;28;20319;-41
2022/05/09 11:50:29;;;;;;;4.23;3.83;;;;;;;;;;5055080;28;20205;-38
2022/05/09 11:52:59;;;;;;;4.77;3.63;;;;;;;;;;5043276;28;20533;-41
2022/05/09 11:55:27;;;;;;;4.30;3.73;;;;;;;;;;5053873;28;20220;-39
2022/05/09 11:57:56;;;;;;;4.30;3.90;;;;;;;;;;5048745;28;20203;-38
2022/05/09 12:00:44;;;;;;;8.77;4.10;;;;;;;;;;5048482;28;20253;-33
2022/05/09 12:03:13;;;;;;;3.77;3.37;;;;;;;;;;5053025;28;20496;-41
2022/05/09 12:06:01;;;;;;;4.30;3.97;;;;;;;;;;5041426;28;20617;-33
2022/05/09 12:08:42;;;;;;;4.50;3.70;;;;;;;;;;5035923;28;20215;-37
2022/05/09 12:11:27;;;;;;;4.87;4.00;;;;;;;;;;5032085;28;20210;-36
2022/05/09 12:13:57;;;;;;;4.50;3.60;;;;;;;;;;5046813;28;20203;-36
2022/05/09 12:16:44;;;;;;;4.97;4.03;;;;;;;;;;5040855;28;20244;-35
2022/05/09 12:19:16;;;;;;;8.20;3.80;;;;;;;;;;5050074;28;20291;-32
2022/05/09 12:21:43;;;;;;;6.60;3.93;;;;;;;;;;5036720;28;20199;-38
2022/05/09 12:24:20;;;;;;;4.17;3.77;;;;;;;;;;5051000;28;20219;-33
2022/05/09 12:26:49;;;;;;;4.23;3.93;;;;;;;;;;5045558;28;20238;-34
2022/05/09 12:29:34;;;;;;;3.60;3.30;;;;;;;;;;5046730;28;20238;-36
2022/05/09 12:32:03;;;;;;;4.10;3.80;;;;;;;;;;5030970;28;20211;-35
2022/05/09 12:34:35;;;;;;;4.57;3.97;;;;;;;;;;5037193;28;20423;-34
2022/05/09 12:37:02;;;;;;;3.73;3.43;;;;;;;;;;5043686;28;20239;-31
2022/05/09 12:39:32;;;;;;;4.57;3.50;;;;;;;;;;5044257;28;20210;-33
2022/05/09 12:42:00;;;;;;;4.87;4.00;;;;;;;;;;5038793;28;20209;-33
2022/05/09 12:44:29;;;;;;;3.83;3.47;;;;;;;;;;5051631;28;20204;-37
2022/05/09 12:46:58;;;;;;;5.63;3.57;;;;;;;;;;5032135;28;20668;-35
2022/05/09 12:49:28;;;;;;;3.93;3.37;;;;;;;;;;5032623;28;20200;-31
2022/05/09 12:51:58;;;;;;;7.40;3.70;;;;;;;;;;5048160;28;20308;-36
2022/05/09 12:54:27;;;;;;;3.37;3.17;;;;;;;;;;5051224;28;20204;-36
2022/05/09 12:56:56;;;;;;;4.60;3.40;;;;;;;;;;5050678;28;20235;-36
2022/05/09 12:59:23;;;;;;;5.33;4.13;;;;;;;;;;5051416;28;20231;-35
2022/05/09 13:01:52;;;;;;;3.60;3.30;;;;;;;;;;5041001;28;20271;-34
2022/05/09 13:04:36;;;;;;;4.10;3.70;;;;;;;;;;5044477;28;20217;-32
2022/05/09 13:07:06;;;;;;;5.57;3.83;;;;;;;;;;5049222;28;20506;-33
2022/05/09 13:09:34;;;;;;;4.20;3.80;;;;;;;;;;5029761;28;20209;-36
2022/05/09 13:12:03;;;;;;;3.77;3.50;;;;;;;;;;5042844;28;20290;-37
2022/05/09 13:14:34;;;;;;;5.20;3.67;;;;;;;;;;5046419;28;20218;-33
2022/05/09 13:17:04;;;;;;;5.10;3.80;;;;;;;;;;5036802;28;20236;-37
2022/05/09 13:19:31;;;;;;;3.90;3.60;;;;;;;;;;5042619;28;20214;-35
2022/05/09 13:21:59;;;;;;;3.80;3.50;;;;;;;;;;5045835;28;20211;-33
2022/05/09 13:24:34;;;;;;;3.73;3.43;;;;;;;;;;5048449;28;20220;-33
2022/05/09 13:27:03;;;;;;;7.23;4.10;;;;;;;;;;5038859;28;20290;-31
2022/05/09 13:29:31;;;;;;;4.33;3.50;;;;;;;;;;5045117;28;20258;-38
2022/05/09 13:31:59;;;;;;;4.20;3.90;;;;;;;;;;5034803;28;20216;-33
2022/05/09 13:34:29;;;;;;;6.00;3.40;;;;;;;;;;5050936;28;20225;-32
2022/05/09 13:36:56;;;;;;;4.57;3.83;;;;;;;;;;5052093;28;20224;-37
2022/05/09 13:39:25;;;;;;;3.67;3.40;;;;;;;;;;5053095;28;20205;-34
2022/05/09 13:41:55;;;;;;;3.90;3.60;;;;;;;;;;5049654;28;20209;-32
2022/05/09 13:44:22;;;;;;;3.93;3.53;;;;;;;;;;5052489;28;20217;-36
2022/05/09 13:46:50;;;;;;;3.93;3.63;;;;;;;;;;5034730;28;20607;-32
2022/05/09 13:49:19;;;;;;;4.83;3.40;;;;;;;;;;5052027;28;20207;-32
2022/05/09 13:52:04;;;;;;;6.17;3.90;;;;;;;;;;5047430;28;20245;-34
2022/05/09 13:54:32;;;;;;;6.47;4.00;;;;;;;;;;5040749;28;20233;-35
2022/05/09 13:57:16;;;;;;;4.07;3.33;;;;;;;;;;5046013;28;20222;-32
2022/05/09 13:59:43;;;;;;;4.00;3.50;;;;;;;;;;5050797;28;20215;-39
2022/05/09 14:02:12;;;;;;;3.53;3.23;;;;;;;;;;5047749;28;20307;-41
2022/05/09 14:04:40;;;;;;;3.63;3.33;;;;;;;;;;5054899;28;20215;-36
2022/05/09 14:09:49;;;;;;;3.33;3.03;;;;;;;;;;5046442;28;20293;-34
2022/05/09 14:12:19;;;;;;;3.90;3.57;;;;;;;;;;5042038;28;20209;-34
2022/05/09 14:14:48;;;;;;;3.63;3.17;;;;;;;;;;5041271;28;20209;-36
2022/05/09 14:17:18;;;;;;;3.53;3.20;;;;;;;;;;5038315;28;20225;-34
2022/05/09 14:19:50;;;;;;;3.53;3.23;;;;;;;;;;5036165;28;20209;-36
2022/05/09 14:22:21;;;;;;;5.13;3.83;;;;;;;;;;5045926;28;20214;-29
2022/05/09 14:30:32;;;;;;;3.60;3.30;;;;;;;;;;5049314;28;20249;-33
2022/05/09 14:32:59;;;;;;;5.00;2.97;;;;;;;;;;5052128;28;20193;-40
2022/05/09 14:35:37;;;;;;;4.80;3.37;;;;;;;;;;5054457;28;20228;-34
2022/05/09 14:38:05;;;;;;;3.67;3.20;;;;;;;;;;5052693;28;20197;-34
2022/05/09 14:40:33;;;;;;;3.67;3.37;;;;;;;;;;5045787;28;20216;-38
2022/05/09 14:43:04;;;;;;;3.70;3.17;;;;;;;;;;5050807;28;20409;-36
2022/05/09 14:45:33;;;;;;;3.57;3.27;;;;;;;;;;5045703;28;20260;-36
2022/05/09 14:48:03;;;;;;;4.57;3.20;;;;;;;;;;5034096;28;20320;-36
2022/05/09 14:50:31;;;;;;;4.60;3.03;;;;;;;;;;5036081;28;20210;-36
2022/05/09 14:53:01;;;;;;;5.10;3.43;;;;;;;;;;5047808;28;20201;-36
2022/05/09 14:58:20;;;;;;;3.73;3.43;;;;;;;;;;5049266;28;20196;-38
2022/05/09 15:00:51;;;;;;;4.17;3.80;;;;;;;;;;5051430;28;20251;-37
2022/05/09 15:03:20;;;;;;;4.53;3.63;;;;;;;;;;5033893;28;20206;-33
2022/05/09 15:05:47;;;;;;;4.57;3.57;;;;;;;;;;5042594;28;20229;-36
2022/05/09 15:08:14;;;;;;;3.87;3.40;;;;;;;;;;5041760;28;20230;-33
2022/05/09 15:10:43;;;;;;;3.87;3.50;;;;;;;;;;5051447;28;20260;-36
2022/05/09 15:13:11;;;;;;;3.50;3.20;;;;;;;;;;5046075;28;20231;-33
2022/05/09 15:15:52;;;;;;;3.30;3.00;;;;;;;;;;5051507;28;20221;-36
2022/05/09 15:18:20;;;;;;;3.80;3.50;;;;;;;;;;5054227;28;20206;-35
2022/05/09 15:20:48;;;;;;;3.63;3.27;;;;;;;;;;5054381;28;20207;-35
2022/05/09 15:23:15;;;;;;;6.07;3.37;;;;;;;;;;5047510;28;20267;-38
2022/05/09 15:25:48;;;;;;;4.20;3.80;;;;;;;;;;5042510;28;20316;-34